Time;durP1;ratioP1;P1;durP2;ratioP2;P2;SDS_P1;SDS_P2;PMS_P1;PMS_P2;Temp;Humidity;BMP_temperature;BMP_pressure;BME280_temperature;BME280_humidity;BME280_pressure;Samples;Min_cycle;Max_cycle;Signal;HPM_P1;HPM_P2
2023/01/03 00:01:19;;;;;;;3.77;2.17;;;7.00;99.90;;;7.78;100.00;99213.38;5058205;28;20479;-78
2023/01/03 00:03:48;;;;;;;2.90;1.93;;;7.00;99.90;;;7.77;100.00;99220.41;5058614;28;20485;-78
2023/01/03 00:06:21;;;;;;;10.53;1.90;;;7.00;99.90;;;7.74;100.00;99212.03;5052887;28;20971;-78
2023/01/03 00:08:53;;;;;;;5.20;1.83;;;7.00;99.90;;;7.69;100.00;99204.63;5056532;28;20457;-78
2023/01/03 00:14:08;;;;;;;4.30;2.70;;;6.70;99.90;;;7.52;100.00;99228.78;5051587;28;20959;-78
2023/01/03 00:16:38;;;;;;;2.50;2.10;;;6.80;99.90;;;7.51;100.00;99225.34;5053561;28;20959;-78
2023/01/03 00:19:11;;;;;;;4.10;2.47;;;6.80;99.90;;;7.50;100.00;99212.47;5053018;28;21043;-78
2023/01/03 00:21:44;;;;;;;4.97;2.10;;;6.70;99.90;;;7.44;100.00;99224.25;5053352;28;20865;-78
2023/01/03 00:24:13;;;;;;;5.43;2.30;;;6.70;99.90;;;7.36;100.00;99218.91;5051618;28;20542;-78
2023/01/03 00:26:44;;;;;;;8.80;5.00;;;6.60;99.90;;;7.39;100.00;99220.44;5051593;28;20467;-78
2023/01/03 00:29:15;;;;;;;2.87;2.53;;;6.60;99.90;;;7.36;100.00;99224.13;5051660;28;20559;-78
2023/01/03 00:31:45;;;;;;;4.37;2.20;;;6.50;99.90;;;7.27;100.00;99211.94;5051278;28;20469;-78
2023/01/03 00:34:16;;;;;;;4.47;2.50;;;6.40;99.90;;;7.32;100.00;99214.97;5055639;28;21002;-78
2023/01/03 00:36:48;;;;;;;3.90;2.20;;;6.50;99.90;;;7.31;100.00;99212.50;5052797;28;20549;-78
2023/01/03 00:39:18;;;;;;;8.50;2.20;;;6.50;99.90;;;7.27;100.00;99217.16;5053437;28;20520;-78
2023/01/03 00:41:50;;;;;;;3.17;2.40;;;6.60;99.90;;;7.18;100.00;99215.38;5052296;28;20476;-78
2023/01/03 00:44:21;;;;;;;5.63;2.60;;;6.40;99.90;;;7.21;100.00;99224.69;5053962;28;20474;-78
2023/01/03 00:46:50;;;;;;;9.80;2.93;;;6.40;99.90;;;7.20;100.00;99212.63;5052978;28;20563;-78
2023/01/03 00:49:23;;;;;;;7.93;2.37;;;6.50;99.90;;;7.16;100.00;99214.69;5053750;28;20458;-78
2023/01/03 00:51:54;;;;;;;2.50;2.30;;;6.40;99.90;;;7.21;100.00;99220.31;5050327;28;20491;-78
2023/01/03 00:54:24;;;;;;;3.17;2.50;;;6.50;99.90;;;7.23;100.00;99218.38;5052673;28;20465;-78
2023/01/03 00:56:53;;;;;;;6.17;2.00;;;6.50;99.90;;;7.23;100.00;99223.56;5054455;28;20484;-78
2023/01/03 00:59:23;;;;;;;4.50;2.30;;;6.40;99.90;;;7.27;100.00;99216.31;5054404;28;20491;-78
2023/01/03 01:01:55;;;;;;;3.17;2.20;;;6.50;99.90;;;7.25;100.00;99226.88;5051730;28;20461;-78
2023/01/03 01:04:28;;;;;;;2.27;2.07;;;6.50;99.90;;;7.24;100.00;99230.44;5051680;28;20476;-78
2023/01/03 01:07:01;;;;;;;2.10;2.00;;;6.40;99.90;;;7.22;100.00;99237.53;5055333;28;20519;-78
2023/01/03 01:09:34;;;;;;;2.80;2.17;;;6.50;99.90;;;7.22;100.00;99234.94;5054758;28;20981;-78
2023/01/03 01:12:05;;;;;;;6.70;2.43;;;6.50;99.90;;;7.17;100.00;99229.31;5052393;28;20850;-78
2023/01/03 01:14:36;;;;;;;4.10;1.90;;;6.40;99.90;;;7.20;100.00;99234.25;5052407;28;20905;-78
2023/01/03 01:17:08;;;;;;;2.20;2.00;;;6.40;99.90;;;7.16;100.00;99235.47;5054792;28;20530;-78
2023/01/03 01:19:41;;;;;;;3.60;2.10;;;6.50;99.90;;;7.18;100.00;99238.78;5051463;28;20465;-78
2023/01/03 01:22:12;;;;;;;5.03;2.23;;;6.50;99.90;;;7.16;100.00;99240.69;5052857;28;20939;-78
2023/01/03 01:24:43;;;;;;;5.20;2.13;;;6.50;99.90;;;7.10;100.00;99246.44;5054765;28;21227;-78
2023/01/03 01:27:12;;;;;;;4.70;2.07;;;6.40;99.90;;;7.03;100.00;99240.13;5054248;28;20547;-78
2023/01/03 01:29:42;;;;;;;3.20;2.40;;;6.20;99.90;;;6.92;100.00;99242.84;5050838;28;20476;-78
2023/01/03 01:32:12;;;;;;;8.37;2.10;;;6.10;99.90;;;6.85;100.00;99250.34;5056412;28;20488;-78
2023/01/03 01:34:42;;;;;;;2.50;2.10;;;6.00;99.90;;;6.82;100.00;99253.22;5054457;28;20480;-78
2023/01/03 01:37:13;;;;;;;2.50;2.30;;;5.90;99.90;;;6.81;100.00;99258.53;5054286;28;20954;-78
2023/01/03 01:39:43;;;;;;;4.70;2.80;;;5.90;99.90;;;6.78;100.00;99266.63;5054476;28;20464;-78
2023/01/03 01:45:16;;;;;;;4.10;2.17;;;5.80;99.90;;;6.69;100.00;99275.22;4991638;28;20522;-78
2023/01/03 01:47:53;;;;;;;6.43;2.40;;;5.80;99.90;;;6.69;100.00;99275.22;4995729;28;20554;-78
2023/01/03 01:50:31;;;;;;;3.93;2.17;;;5.80;99.90;;;6.68;100.00;99279.59;5031211;28;20486;-78
2023/01/03 01:53:07;;;;;;;3.20;2.60;;;5.70;99.90;;;6.70;100.00;99272.47;5057280;28;20452;-78
2023/01/03 01:55:42;;;;;;;7.60;2.67;;;5.80;99.90;;;6.58;100.00;99278.75;5057316;28;20495;-78
2023/01/03 01:58:12;;;;;;;3.87;2.17;;;5.70;99.90;;;6.54;100.00;99278.19;5059794;28;20499;-78
2023/01/03 02:00:44;;;;;;;2.27;2.10;;;5.60;99.90;;;6.55;100.00;99274.63;5058097;28;20570;-78
2023/01/03 02:03:14;;;;;;;9.53;2.40;;;5.70;99.90;;;6.55;100.00;99269.44;5056374;28;21122;-78
2023/01/03 02:05:50;;;;;;;5.10;3.53;;;5.70;99.90;;;6.46;100.00;99283.19;5057292;28;20985;-78
2023/01/03 02:08:21;;;;;;;5.37;2.17;;;5.60;99.90;;;6.48;100.00;99281.31;5055808;28;20484;-78
2023/01/03 02:11:14;;;;;;;5.50;2.43;;;5.60;99.90;;;6.54;100.00;99270.38;5059715;28;20464;-78
2023/01/03 02:13:56;;;;;;;2.10;1.90;;;5.70;99.90;;;6.40;100.00;99275.94;5056429;28;20461;-78
2023/01/03 02:16:55;;;;;;;6.03;2.20;;;5.50;99.90;;;6.40;100.00;99272.50;5058847;28;20464;-78
2023/01/03 02:20:02;;;;;;;7.30;2.50;;;5.50;99.90;;;6.40;100.00;99280.28;5059541;28;20548;-78
2023/01/03 02:23:33;;;;;;;2.37;2.10;;;5.50;99.90;;;6.45;100.00;99278.16;5056129;28;20522;-78
2023/01/03 02:26:48;;;;;;;3.53;2.47;;;5.70;99.90;;;6.46;100.00;99267.59;5056809;28;21135;-78
2023/01/03 02:30:15;;;;;;;9.70;2.53;;;5.70;99.90;;;6.50;100.00;99279.38;5056831;28;20468;-78
2023/01/03 02:32:53;;;;;;;3.00;2.50;;;5.70;99.90;;;6.52;100.00;99280.09;5056219;28;20457;-78
2023/01/03 02:35:33;;;;;;;2.90;2.23;;;5.70;99.90;;;6.50;100.00;99281.97;5054922;28;20469;-78
2023/01/03 02:38:13;;;;;;;5.00;2.40;;;5.70;99.90;;;6.43;100.00;99283.47;5056691;28;20462;-78
2023/01/03 02:40:49;;;;;;;4.70;2.40;;;5.60;99.90;;;6.45;100.00;99283.34;5054652;28;20492;-78
2023/01/03 02:43:28;;;;;;;8.07;2.77;;;5.70;99.90;;;6.42;100.00;99286.19;5058517;28;20452;-78
2023/01/03 02:46:07;;;;;;;4.27;2.13;;;5.60;99.90;;;6.39;100.00;99289.84;5055327;28;20457;-78
2023/01/03 02:48:52;;;;;;;7.37;1.83;;;5.70;99.90;;;6.36;100.00;99297.91;5055970;28;20467;-78
2023/01/03 02:51:28;;;;;;;3.23;2.60;;;5.60;99.90;;;6.27;100.00;99296.09;5054858;28;20465;-78
2023/01/03 02:54:02;;;;;;;6.63;2.30;;;5.50;99.90;;;6.28;100.00;99286.53;5055252;28;21103;-78
2023/01/03 02:56:38;;;;;;;2.40;2.20;;;5.50;99.90;;;6.30;100.00;99275.06;5055598;28;20465;-78
2023/01/03 02:59:15;;;;;;;3.73;2.10;;;5.50;99.90;;;6.28;100.00;99281.34;5056484;28;20472;-78
2023/01/03 03:01:49;;;;;;;3.83;2.53;;;5.50;99.90;;;6.25;100.00;99281.59;5055715;28;21178;-78
2023/01/03 03:04:23;;;;;;;2.00;1.80;;;5.50;99.90;;;6.21;100.00;99283.66;5057602;28;20490;-78
2023/01/03 03:07:03;;;;;;;2.63;2.10;;;5.40;99.90;;;6.17;100.00;99287.44;5058024;28;20753;-78
2023/01/03 03:09:32;;;;;;;4.43;2.40;;;5.30;99.90;;;6.14;100.00;99285.09;5056758;28;20527;-78
2023/01/03 03:14:54;;;;;;;3.17;2.60;;;5.20;99.90;;;6.09;100.00;99284.66;5055047;28;20461;-78
2023/01/03 03:17:30;;;;;;;3.77;2.50;;;5.30;99.90;;;5.99;100.00;99291.56;5052496;28;20521;-78
2023/01/03 03:26:02;;;;;;;2.37;2.17;;;5.20;99.90;;;5.95;100.00;99290.16;5057855;28;20457;-78
2023/01/03 03:28:37;;;;;;;2.77;1.97;;;5.10;99.90;;;5.92;100.00;99296.44;5057615;28;20457;-78
2023/01/03 03:31:15;;;;;;;8.47;2.73;;;5.10;99.90;;;5.85;100.00;99300.47;5058917;28;20460;-78
2023/01/03 03:33:52;;;;;;;3.67;2.63;;;4.90;99.90;;;5.84;100.00;99298.81;5056087;28;20545;-78
2023/01/03 03:36:35;;;;;;;3.40;2.03;;;4.90;99.90;;;5.82;100.00;99311.09;5057557;28;20460;-79
2023/01/03 03:44:59;;;;;;;11.20;2.70;;;4.90;99.90;;;5.80;100.00;99301.78;5058123;28;20470;-78
2023/01/03 03:45:17;;;;;;;2.93;2.63;;;4.70;99.90;;;5.63;100.00;99299.72;5056984;28;20485;-78
2023/01/03 03:47:58;;;;;;;7.07;2.90;;;4.70;99.90;;;5.59;100.00;99296.56;5058456;28;20468;-79
2023/01/03 03:50:35;;;;;;;5.43;2.47;;;4.60;99.90;;;5.51;100.00;99289.44;5052266;28;20930;-78
2023/01/03 03:53:09;;;;;;;2.70;2.50;;;4.50;99.90;;;5.47;100.00;99293.22;5053698;28;20521;-78
2023/01/03 03:55:45;;;;;;;14.13;2.60;;;4.50;99.90;;;5.41;100.00;99295.47;5055606;28;20479;-78
2023/01/03 03:58:18;;;;;;;2.90;1.87;;;4.40;99.90;;;5.44;100.00;99296.06;5054484;28;21054;-78
2023/01/03 04:00:50;;;;;;;6.07;2.50;;;4.50;99.90;;;5.46;100.00;99306.28;5055733;28;20944;-78
2023/01/03 04:03:21;;;;;;;17.10;2.60;;;4.50;99.90;;;5.39;100.00;99308.56;5054874;28;20896;-78
2023/01/03 04:06:00;;;;;;;7.03;3.10;;;4.40;99.90;;;5.47;100.00;99313.97;5053347;28;20465;-78
2023/01/03 04:08:30;;;;;;;10.83;3.50;;;4.50;99.90;;;5.45;100.00;99315.00;5053502;28;20464;-78
2023/01/03 04:11:05;;;;;;;8.47;3.67;;;4.60;99.90;;;5.49;100.00;99312.06;5052466;28;20782;-78
2023/01/03 04:13:37;;;;;;;34.07;3.60;;;4.70;99.90;;;5.49;100.00;99322.44;5052932;28;20472;-78
2023/01/03 04:16:08;;;;;;;19.03;3.63;;;4.60;99.90;;;5.48;100.00;99318.19;5053470;28;20505;-77
2023/01/03 04:18:37;;;;;;;17.50;4.23;;;4.60;99.90;;;5.52;100.00;99309.22;5054719;28;20483;-78
2023/01/03 04:21:07;;;;;;;15.97;3.57;;;4.60;99.90;;;5.58;100.00;99303.53;5056961;28;20545;-78
2023/01/03 04:23:45;;;;;;;8.43;3.90;;;4.80;99.90;;;5.62;100.00;99308.47;5058110;28;20475;-77
2023/01/03 04:26:15;;;;;;;5.03;3.03;;;4.80;99.90;;;5.54;100.00;99301.31;5056171;28;20789;-77
2023/01/03 04:28:45;;;;;;;3.50;2.90;;;4.70;99.90;;;5.50;100.00;99300.75;5054933;28;20465;-77
2023/01/03 04:31:15;;;;;;;9.80;2.97;;;4.60;99.90;;;5.39;100.00;99302.53;5055321;28;20465;-77
2023/01/03 04:33:44;;;;;;;3.80;2.93;;;4.50;99.90;;;5.34;100.00;99308.13;5056290;28;20612;-77
2023/01/03 04:36:17;;;;;;;10.33;2.83;;;4.40;99.90;;;5.34;100.00;99305.53;5053971;28;20468;-74
2023/01/03 04:38:48;;;;;;;2.87;2.67;;;4.50;99.90;;;5.39;100.00;99307.72;5054993;28;20472;-77
2023/01/03 04:41:17;;;;;;;14.13;3.03;;;4.60;99.90;;;5.46;100.00;99309.72;5054123;28;20513;-77
2023/01/03 04:44:03;;;;;;;36.97;3.97;;;4.80;99.90;;;5.45;100.00;99317.59;5056062;28;20463;-78
2023/01/03 04:46:36;;;;;;;4.27;3.07;;;4.80;99.90;;;5.47;100.00;99316.56;5056587;28;21189;-78
2023/01/03 04:49:08;;;;;;;13.73;3.17;;;4.80;99.90;;;5.46;100.00;99314.91;5056795;28;20529;-78
2023/01/03 04:51:37;;;;;;;3.93;3.40;;;4.80;99.90;;;5.47;100.00;99319.16;5056166;28;20469;-77
2023/01/03 04:54:10;;;;;;;10.13;2.90;;;4.80;99.90;;;5.44;100.00;99314.22;5055736;28;20502;-77
2023/01/03 04:56:39;;;;;;;5.00;2.73;;;4.70;99.90;;;5.44;100.00;99314.22;5055867;28;20479;-77
2023/01/03 04:59:09;;;;;;;4.00;2.60;;;4.70;99.90;;;5.45;100.00;99313.25;5055208;28;20878;-77
2023/01/03 05:01:38;;;;;;;4.33;2.33;;;4.70;99.90;;;5.41;100.00;99317.06;5055187;28;20491;-77
2023/01/03 05:04:09;;;;;;;7.33;2.77;;;4.70;99.90;;;5.42;100.00;99320.44;5055325;28;22172;-78
2023/01/03 05:06:38;;;;;;;5.90;2.80;;;4.70;99.90;;;5.35;100.00;99317.53;5055483;28;20472;-78
2023/01/03 05:09:10;;;;;;;6.47;2.80;;;4.60;99.90;;;5.30;100.00;99316.25;5053780;28;20468;-77
2023/01/03 05:11:41;;;;;;;15.93;3.30;;;4.50;99.90;;;5.26;100.00;99318.28;5052948;28;20548;-78
2023/01/03 05:14:10;;;;;;;4.47;2.80;;;4.50;99.90;;;5.22;100.00;99313.44;5053376;28;20465;-78
2023/01/03 05:16:42;;;;;;;4.57;2.80;;;4.40;99.90;;;5.18;100.00;99320.63;5057086;28;20975;-78
2023/01/03 05:19:11;;;;;;;9.03;2.40;;;4.30;99.90;;;5.08;100.00;99322.31;5055779;28;20496;-78
2023/01/03 05:27:13;;;;;;;17.40;4.00;;;4.10;99.90;;;5.08;100.00;99327.50;5058390;28;20471;-79
2023/01/03 05:29:42;;;;;;;21.23;3.47;;;4.20;99.90;;;5.07;100.00;99326.66;5058576;28;21068;-78
2023/01/03 05:32:12;;;;;;;134.37;7.27;;;4.20;99.90;;;5.05;100.00;99325.97;5060026;28;20476;-78
2023/01/03 05:34:41;;;;;;;108.10;5.47;;;4.20;99.90;;;4.98;100.00;99334.34;5058233;28;20531;-78
2023/01/03 05:37:11;;;;;;;70.80;5.40;;;4.10;99.90;;;4.92;100.00;99333.06;5058634;28;20467;-77
2023/01/03 05:39:43;;;;;;;93.90;5.23;;;4.00;99.90;;;4.91;100.00;99338.34;5061750;28;20466;-78
2023/01/03 05:42:12;;;;;;;148.83;7.83;;;4.10;99.90;;;4.88;100.00;99328.22;5059223;28;20540;-78
2023/01/03 05:44:43;;;;;;;135.60;5.40;;;4.00;99.90;;;4.85;100.00;99338.84;5058228;28;20510;-78
2023/01/03 05:47:11;;;;;;;79.57;5.20;;;3.90;99.90;;;4.88;100.00;99338.59;5059435;28;20987;-78
2023/01/03 05:49:41;;;;;;;55.03;3.70;;;4.00;99.90;;;4.92;100.00;99345.19;5057988;28;20471;-78
2023/01/03 05:52:09;;;;;;;49.53;4.10;;;4.00;99.90;;;4.93;100.00;99344.22;5059248;28;20482;-78
2023/01/03 05:54:41;;;;;;;71.17;3.50;;;4.00;99.90;;;4.95;100.00;99342.38;5059161;28;20478;-78
2023/01/03 05:57:10;;;;;;;40.37;3.57;;;4.10;99.90;;;4.97;100.00;99337.88;5059669;28;20463;-78
2023/01/03 05:59:40;;;;;;;40.00;3.80;;;4.20;99.90;;;4.98;100.00;99336.94;5061417;28;20466;-78
2023/01/03 06:02:10;;;;;;;4.73;3.10;;;4.20;99.90;;;4.98;100.00;99339.53;5059148;28;20498;-78
2023/01/03 06:04:39;;;;;;;46.07;3.73;;;4.10;99.90;;;4.94;100.00;99345.88;5059734;28;20465;-78
2023/01/03 06:07:08;;;;;;;23.00;4.30;;;4.10;99.90;;;4.88;100.00;99343.78;5060524;28;20463;-78
2023/01/03 06:09:37;;;;;;;6.57;2.83;;;4.00;99.90;;;4.74;100.00;99341.44;5059226;28;20464;-78
2023/01/03 06:12:09;;;;;;;12.23;2.90;;;3.80;99.90;;;4.71;100.00;99349.44;5059145;28;20467;-78
2023/01/03 06:14:39;;;;;;;7.67;2.60;;;3.80;99.90;;;4.67;100.00;99351.44;5056847;28;20462;-78
2023/01/03 06:19:57;;;;;;;24.03;3.70;;;3.80;99.90;;;4.65;100.00;99358.50;5057193;28;20473;-77
2023/01/03 06:22:27;;;;;;;14.80;3.80;;;3.70;99.90;;;4.68;100.00;99357.44;5059865;28;20573;-78
2023/01/03 06:24:56;;;;;;;7.77;3.60;;;3.90;99.90;;;4.62;100.00;99360.53;5056291;28;20544;-77
2023/01/03 06:27:26;;;;;;;4.60;2.77;;;3.70;99.90;;;4.63;100.00;99354.38;5059892;28;20563;-78
2023/01/03 06:29:56;;;;;;;34.60;3.43;;;3.70;99.90;;;4.64;100.00;99356.03;5056503;28;20503;-78
2023/01/03 06:32:26;;;;;;;6.80;3.50;;;3.80;99.90;;;4.69;100.00;99362.50;5057415;28;20931;-78
2023/01/03 06:34:55;;;;;;;11.80;3.13;;;3.80;99.90;;;4.70;100.00;99358.16;5055359;28;20554;-78
2023/01/03 06:37:23;;;;;;;50.10;3.67;;;3.80;99.90;;;4.69;100.00;99362.50;5056822;28;20969;-78
2023/01/03 06:39:53;;;;;;;13.60;3.50;;;3.80;99.90;;;4.73;100.00;99360.50;5057028;28;20452;-78
2023/01/03 06:53:42;;;;;;;7.87;3.33;;;3.70;99.90;;;4.42;100.00;99370.59;5060118;28;20457;-78
2023/01/03 06:56:12;;;;;;;4.67;3.33;;;3.60;99.90;;;4.41;100.00;99366.38;5057199;28;20470;-77
2023/01/03 06:58:43;;;;;;;8.50;3.97;;;3.60;99.90;;;4.38;100.00;99374.38;5058122;28;20458;-78
2023/01/03 07:01:15;;;;;;;7.47;4.13;;;3.50;99.90;;;4.37;100.00;99367.53;5056380;28;20454;-78
2023/01/03 07:03:46;;;;;;;4.57;3.13;;;3.40;99.90;;;4.29;100.00;99369.06;5056325;28;20503;-78
2023/01/03 07:06:16;;;;;;;4.77;3.30;;;3.40;99.90;;;4.18;100.00;99372.44;5060389;28;20467;-78
2023/01/03 07:08:46;;;;;;;5.60;3.47;;;3.30;99.90;;;4.13;100.00;99371.16;5057192;28;20497;-78
2023/01/03 07:11:17;;;;;;;3.67;3.00;;;3.30;99.90;;;4.19;100.00;99381.88;5059015;28;20464;-78
2023/01/03 07:13:58;;;;;;;5.27;3.27;;;3.30;99.90;;;4.17;100.00;99378.56;5058927;28;20512;-78
2023/01/03 07:16:34;;;;;;;19.90;2.90;;;3.40;99.90;;;4.13;100.00;99377.13;5057187;28;20885;-77
2023/01/03 07:19:05;;;;;;;5.77;3.00;;;3.30;99.90;;;4.14;100.00;99383.97;5057513;28;20463;-78
2023/01/03 07:21:36;;;;;;;4.50;3.10;;;3.30;99.90;;;4.19;100.00;99387.03;5056224;28;20479;-78
2023/01/03 07:24:11;;;;;;;6.13;2.87;;;3.30;99.90;;;4.22;100.00;99392.00;5056989;28;21021;-78
2023/01/03 07:26:41;;;;;;;9.80;3.50;;;3.30;99.90;;;4.23;100.00;99392.81;5055826;28;20457;-77
2023/01/03 07:29:12;;;;;;;3.03;2.60;;;3.30;99.90;;;4.17;100.00;99394.06;5054931;28;20475;-78
2023/01/03 07:31:42;;;;;;;5.47;3.50;;;3.30;99.90;;;4.23;100.00;99390.22;5058380;28;20501;-78
2023/01/03 07:34:12;;;;;;;7.00;3.13;;;3.40;99.90;;;4.25;100.00;99389.16;5055236;28;20541;-78
2023/01/03 07:36:42;;;;;;;5.83;2.90;;;3.40;99.90;;;4.24;100.00;99389.28;5056087;28;20467;-77
2023/01/03 07:39:12;;;;;;;3.90;2.80;;;3.30;99.90;;;4.23;100.00;99398.00;5057758;28;20469;-79
2023/01/03 07:44:31;;;;;;;3.73;2.90;;;3.40;99.90;;;4.28;100.00;99399.28;5057102;28;21026;-78
2023/01/03 07:47:01;;;;;;;4.20;3.10;;;3.40;99.90;;;4.27;100.00;99397.63;5057501;28;20586;-78
2023/01/03 07:49:31;;;;;;;3.17;2.60;;;3.50;99.90;;;4.24;100.00;99400.44;5058128;28;20461;-78
2023/01/03 07:52:02;;;;;;;4.40;2.90;;;3.40;99.90;;;4.22;100.00;99410.09;5053452;28;20463;-78
2023/01/03 07:54:31;;;;;;;12.40;4.93;;;3.40;99.90;;;4.24;100.00;99408.22;5058282;28;20474;-78
2023/01/03 07:57:03;;;;;;;4.00;2.83;;;3.40;99.90;;;4.27;100.00;99405.41;5057290;28;20831;-78
2023/01/03 07:59:33;;;;;;;7.53;2.80;;;3.40;99.90;;;4.31;100.00;99406.81;5057275;28;20465;-78
2023/01/03 08:02:03;;;;;;;4.93;3.20;;;3.50;99.90;;;4.31;100.00;99417.19;5056410;28;20822;-78
2023/01/03 08:04:35;;;;;;;4.70;3.47;;;3.50;99.90;;;4.30;100.00;99414.72;5055995;28;20487;-78
2023/01/03 08:07:05;;;;;;;2.60;2.40;;;3.50;99.90;;;4.27;100.00;99415.75;5056333;28;20463;-78
2023/01/03 08:15:10;;;;;;;7.03;2.77;;;3.40;99.90;;;4.28;100.00;99407.06;5057028;28;20518;-78
2023/01/03 08:17:41;;;;;;;5.60;2.77;;;3.50;99.90;;;4.33;100.00;99417.91;5056967;28;20472;-77
2023/01/03 08:20:11;;;;;;;10.63;3.20;;;3.50;99.90;;;4.31;100.00;99424.94;5055993;28;20458;-77
2023/01/03 08:22:42;;;;;;;3.53;2.90;;;3.50;99.90;;;4.33;100.00;99424.84;5055369;28;20460;-78
2023/01/03 08:25:12;;;;;;;8.43;2.87;;;3.60;99.90;;;4.33;100.00;99430.84;5056345;28;20525;-78
2023/01/03 08:27:43;;;;;;;2.80;2.50;;;3.60;99.90;;;4.35;100.00;99431.56;5052537;28;20980;-78
2023/01/03 08:30:19;;;;;;;3.43;2.70;;;3.60;99.90;;;4.37;100.00;99434.03;5054215;28;20457;-78
2023/01/03 08:32:52;;;;;;;2.70;2.37;;;3.50;99.90;;;4.40;100.00;99426.06;5053689;28;20466;-78
2023/01/03 08:35:25;;;;;;;3.00;2.33;;;3.60;99.90;;;4.39;100.00;99430.41;5053371;28;20462;-78
2023/01/03 08:37:55;;;;;;;8.00;3.17;;;3.50;99.90;;;4.40;100.00;99431.22;5056023;28;20459;-78
2023/01/03 08:40:25;;;;;;;2.40;2.23;;;3.50;99.90;;;4.39;100.00;99433.00;5056290;28;20507;-78
2023/01/03 08:42:56;;;;;;;3.20;2.47;;;3.50;99.90;;;4.42;100.00;99430.16;5054504;28;20487;-78
2023/01/03 08:45:27;;;;;;;4.60;2.93;;;3.60;99.90;;;4.47;100.00;99437.59;5054377;28;20492;-77
2023/01/03 08:48:01;;;;;;;6.90;2.77;;;3.70;99.90;;;4.51;100.00;99445.00;5057816;28;20450;-78
2023/01/03 08:50:31;;;;;;;8.90;3.37;;;3.80;99.90;;;4.57;100.00;99451.50;5055189;28;20552;-78
2023/01/03 08:53:00;;;;;;;4.43;3.37;;;3.80;99.90;;;4.63;100.00;99450.22;5055199;28;20479;-78
2023/01/03 08:55:29;;;;;;;7.77;3.50;;;4.00;99.90;;;4.66;100.00;99452.56;5056059;28;20467;-76
2023/01/03 08:57:59;;;;;;;8.37;4.47;;;4.00;99.90;;;4.73;100.00;99451.19;5055300;28;20506;-76
2023/01/03 09:00:30;;;;;;;4.00;3.60;;;4.00;99.90;;;4.76;100.00;99448.34;5055588;28;20825;-76
2023/01/03 09:03:02;;;;;;;6.47;3.57;;;4.00;99.90;;;4.81;100.00;99448.84;5055736;28;20487;-77
2023/01/03 09:05:32;;;;;;;3.33;2.53;;;4.10;99.90;;;4.82;100.00;99447.91;5056003;28;20509;-77
2023/01/03 09:08:01;;;;;;;4.80;3.33;;;4.10;99.90;;;4.88;100.00;99447.44;5055529;28;20467;-76
2023/01/03 09:10:31;;;;;;;3.17;2.87;;;4.20;99.90;;;4.93;100.00;99445.31;5055577;28;20547;-76
2023/01/03 09:13:03;;;;;;;6.13;3.70;;;4.20;99.90;;;4.97;100.00;99451.91;5055321;28;20547;-77
2023/01/03 09:15:33;;;;;;;9.03;4.30;;;4.40;99.90;;;5.02;100.00;99452.41;5056303;28;20488;-77
2023/01/03 09:18:04;;;;;;;16.33;4.37;;;4.40;99.90;;;5.06;100.00;99452.06;5057661;28;20605;-76
2023/01/03 09:20:33;;;;;;;5.67;3.60;;;4.50;99.90;;;5.10;100.00;99455.25;5055211;28;20474;-76
2023/01/03 09:23:04;;;;;;;6.13;4.13;;;4.50;99.90;;;5.15;100.00;99450.50;5054928;28;20543;-76
2023/01/03 09:25:34;;;;;;;5.33;3.30;;;4.50;99.90;;;5.20;100.00;99452.75;5055218;28;20566;-76
2023/01/03 09:28:06;;;;;;;6.40;4.50;;;4.60;99.90;;;5.23;100.00;99448.16;5055571;28;20463;-76
2023/01/03 09:30:37;;;;;;;6.40;3.90;;;4.70;99.90;;;5.27;100.00;99449.56;5054628;28;20456;-76
2023/01/03 09:33:09;;;;;;;7.53;4.60;;;4.70;99.90;;;5.32;100.00;99447.44;5055262;28;20964;-76
2023/01/03 09:35:40;;;;;;;6.80;4.03;;;4.70;99.90;;;5.37;100.00;99452.28;5055971;28;20952;-76
2023/01/03 09:38:09;;;;;;;7.03;4.53;;;4.80;99.90;;;5.41;100.00;99453.69;5055116;28;20472;-77
2023/01/03 09:40:44;;;;;;;12.93;4.60;;;4.80;99.90;;;5.45;100.00;99452.47;5056116;28;20463;-76
2023/01/03 09:43:22;;;;;;;7.87;5.00;;;4.90;99.90;;;5.47;100.00;99454.03;5056922;28;20967;-76
2023/01/03 09:45:58;;;;;;;6.37;4.30;;;4.90;99.90;;;5.53;100.00;99445.75;5056078;28;20578;-76
2023/01/03 09:48:34;;;;;;;7.00;4.23;;;4.90;99.90;;;5.58;100.00;99443.66;5055435;28;20465;-76
2023/01/03 10:03:42;;;;;;;8.53;5.60;;;5.10;99.90;;;5.65;100.00;99454.34;5056315;28;20491;-77
2023/01/03 10:06:15;;;;;;;11.43;6.30;;;5.60;99.90;;;6.14;100.00;99459.09;5052116;28;20491;-76
2023/01/03 10:09:05;;;;;;;10.33;5.37;;;5.70;99.90;;;6.21;100.00;99460.25;5053290;28;20491;-76
2023/01/03 10:11:49;;;;;;;2.73;2.53;;;5.80;99.90;;;6.35;100.00;99467.69;5056009;28;20828;-76
2023/01/03 10:14:38;;;;;;;11.47;4.13;;;5.90;99.90;;;6.42;100.00;99468.06;5056438;28;20518;-76
2023/01/03 10:17:27;;;;;;;4.77;3.17;;;6.00;99.90;;;6.50;100.00;99463.88;5058384;28;20894;-76
2023/01/03 10:20:32;;;;;;;7.23;2.70;;;6.10;99.90;;;6.59;100.00;99467.50;5058144;28;20470;-77
2023/01/03 10:23:06;;;;;;;4.70;3.73;;;6.20;99.90;;;6.68;100.00;99465.88;5058534;28;20503;-76
2023/01/03 10:25:39;;;;;;;6.40;4.00;;;6.30;99.90;;;6.75;100.00;99465.25;5056863;28;20908;-77
2023/01/03 10:28:18;;;;;;;7.60;4.83;;;6.40;99.90;;;6.80;100.00;99465.72;5059795;28;20456;-76
2023/01/03 10:31:16;;;;;;;10.43;4.60;;;6.40;99.90;;;6.89;100.00;99459.72;5059418;28;20459;-77
2023/01/03 10:33:48;;;;;;;7.67;4.60;;;6.50;99.90;;;6.92;100.00;99463.84;5058256;28;20549;-77
2023/01/03 10:36:20;;;;;;;14.30;4.60;;;6.50;99.90;;;6.99;100.00;99464.97;5057833;28;20460;-77
2023/01/03 10:39:05;;;;;;;8.13;4.77;;;6.60;99.90;;;7.02;100.00;99467.31;5058892;28;20460;-78
2023/01/03 10:41:43;;;;;;;7.53;4.10;;;6.60;99.90;;;7.07;100.00;99467.75;5058567;28;20939;-77
2023/01/03 10:44:25;;;;;;;9.37;5.30;;;6.70;99.90;;;7.10;100.00;99467.50;5056564;28;20466;-77
2023/01/03 10:46:57;;;;;;;11.23;4.33;;;6.70;99.90;;;7.13;100.00;99467.25;5057370;28;20461;-77
2023/01/03 10:49:28;;;;;;;8.37;4.90;;;6.70;99.90;;;7.19;100.00;99466.72;5057804;28;20473;-77
2023/01/03 10:52:03;;;;;;;17.47;5.27;;;6.80;99.90;;;7.18;100.00;99462.47;5056566;28;20461;-78
2023/01/03 10:54:50;;;;;;;13.60;6.40;;;6.80;99.90;;;7.22;100.00;99461.25;5059395;28;20519;-78
2023/01/03 10:57:42;;;;;;;8.77;4.60;;;6.80;99.90;;;7.26;100.00;99461.81;5057833;28;20522;-78
2023/01/03 11:00:33;;;;;;;9.27;5.30;;;6.80;99.90;;;7.28;100.00;99458.13;5057838;28;20463;-78
2023/01/03 11:03:13;;;;;;;9.27;5.60;;;6.80;99.90;;;7.32;100.00;99446.53;5059752;28;20479;-77
2023/01/03 11:05:48;;;;;;;12.47;6.27;;;6.80;99.90;;;7.36;100.00;99437.47;5056723;28;21117;-77
2023/01/03 11:08:23;;;;;;;8.80;5.87;;;6.90;99.90;;;7.40;100.00;99438.03;5057541;28;20824;-77
2023/01/03 11:11:00;;;;;;;10.97;4.80;;;7.00;99.90;;;7.43;100.00;99442.97;5059016;28;20455;-77
2023/01/03 11:13:35;;;;;;;8.47;5.20;;;7.00;99.90;;;7.47;100.00;99428.72;5059008;28;20518;-77
2023/01/03 11:16:16;;;;;;;6.70;4.20;;;7.00;99.90;;;7.50;100.00;99439.69;5058306;28;20476;-78
2023/01/03 11:19:00;;;;;;;6.40;4.60;;;7.00;99.90;;;7.55;100.00;99440.13;5057045;28;20453;-77
2023/01/03 11:21:43;;;;;;;12.00;5.27;;;7.10;99.90;;;7.57;100.00;99427.81;5055753;28;20466;-78
2023/01/03 11:24:36;;;;;;;8.43;4.30;;;7.20;99.90;;;7.61;100.00;99423.16;5060045;28;20468;-78
2023/01/03 11:27:23;;;;;;;10.23;4.80;;;7.10;99.90;;;7.63;100.00;99423.84;5057269;28;20932;-78
2023/01/03 11:30:16;;;;;;;6.10;4.37;;;7.10;99.90;;;7.66;100.00;99418.38;5056705;28;20461;-78
2023/01/03 11:33:13;;;;;;;5.90;4.53;;;7.20;99.90;;;7.72;100.00;99417.00;5056209;28;20460;-78
2023/01/03 11:36:36;;;;;;;9.93;4.40;;;7.30;99.90;;;7.72;100.00;99414.41;5057935;28;20465;-78
2023/01/03 11:39:35;;;;;;;9.93;4.20;;;7.30;99.90;;;7.76;100.00;99414.00;5058172;28;20468;-78
2023/01/03 11:42:37;;;;;;;6.80;4.20;;;7.40;99.90;;;7.80;100.00;99409.34;5056764;28;20473;-78
2023/01/03 11:45:45;;;;;;;5.50;4.40;;;7.40;99.90;;;7.83;100.00;99406.47;5057231;28;21056;-78
2023/01/03 11:48:42;;;;;;;10.50;4.87;;;7.30;99.90;;;7.82;100.00;99407.44;5056179;28;20492;-78
2023/01/03 11:51:23;;;;;;;11.17;5.23;;;7.40;99.90;;;7.82;100.00;99412.63;5057201;28;20491;-78
2023/01/03 11:54:04;;;;;;;9.60;4.30;;;7.40;99.90;;;7.85;100.00;99412.34;5056977;28;20465;-78
2023/01/03 11:56:38;;;;;;;6.63;4.73;;;7.40;99.90;;;7.85;100.00;99407.97;5058103;28;20456;-78